White Salmon, WA

5:13 AM PST on December 28, 2014 (GMT -0800)
Mosier | Change Station
CLOSE
Current Station
Personal Weather Station
Location: Mosier, OR
Elevation: 975 ft
Nearby Weather Stations

Elev 975 ft 45.67 °N, 121.40 °W | Updated 2 minutes ago

Mostly Cloudy
Mostly Cloudy
39.2 °F
Feels Like 39 °F
N
0.0
Wind Variable Wind from North
Gusts 0.0 mph

Today
High -- | Low -- °F
--% Chance of Precip.
Yesterday
High -- | Low -- °F
Precip. -- in
7:46 AM 4:28 PM
Waxing Crescent, 47% visible
Pressure 30.15 in
Visibility 10.0 miles
Clouds Scattered Clouds 10000 ft
Windchill 39 °F
Dew Point 32 °F
Humidity 76%
Rainfall 0.16 in
Snow Depth Not available.
UV 0 out of 12
Pollen .20 out of 12
Air Quality Not available.
Flu Activity Not available.
METAR KDLS 281253Z AUTO 30015G22KT 10SM SCT100 06/02 A3014 RMK AO2 SLP208 T00610022

More Conditions Fewer Conditions

Pressure 30.15 in
Visibility 10.0 miles
Clouds Scattered Clouds 10000 ft
Windchill 39 °F
Dew Point 32 °F
Humidity 76%
Rainfall 0.16 in
Snow Depth Not available.
UV 0 out of 12
Pollen .20 out of 12
Air Quality Not available.
Flu Activity Not available.
METAR KDLS 281253Z AUTO 30015G22KT 10SM SCT100 06/02 A3014 RMK AO2 SLP208 T00610022

More Conditions Fewer Conditions

10-Day Weather Forecast

Almanac

Astronomy

Dec. 28, 2014 Rise Set
Actual Time
Civil Twilight
Nautical Twilight
Astronomical Twilight
Moon
Length of Visible Light
Length of Day
Tomorrow will be .
, % of the Moon is Illuminated

Today's Extremes

State Highs State Lows

Community

WunderPhotos

Upload Photos

1,781,256 photos uploaded!

WunderBlogs® & News

Nearby

Air Quality

  Air Quality AQ Index Pollutant
Not available.

Snow Depth

Station Depth Elevation

Earthquake Activity

City Distance Mag. Time & Date
Minimum magnitude displayed is 2.5.

Coastal Water Temperatures

Place Temperature

Nearby Weather Stations